createdAt,value
2018-05-11T00:00:28.201Z,10.10
2018-05-11T00:01:28.192Z,11.50
2018-05-11T00:02:28.183Z,10.30
2018-05-11T00:03:28.178Z,10.90
2018-05-11T00:04:28.178Z,10.60
2018-05-11T00:05:28.176Z,10.10
2018-05-11T00:06:28.164Z,10.70
2018-05-11T00:07:28.160Z,10.90
2018-05-11T00:08:28.155Z,11.00
2018-05-11T00:09:28.149Z,9.80
2018-05-11T00:10:28.151Z,10.30
2018-05-11T00:11:28.148Z,10.00
2018-05-11T00:12:28.140Z,10.60
2018-05-11T00:13:28.135Z,10.60
2018-05-11T00:14:28.128Z,11.80
2018-05-11T00:15:28.122Z,10.40
2018-05-11T00:16:28.117Z,11.30
2018-05-11T00:17:28.111Z,11.30
2018-05-11T00:18:28.112Z,9.70
2018-05-11T00:19:28.107Z,10.80
2018-05-11T00:20:28.097Z,10.40
2018-05-11T00:21:28.097Z,10.80
2018-05-11T00:22:28.092Z,11.10
2018-05-11T00:23:28.176Z,10.30
2018-05-11T00:24:28.082Z,10.10
2018-05-11T00:25:28.076Z,10.00
2018-05-11T00:26:28.068Z,10.20
2018-05-11T00:27:28.062Z,10.00
2018-05-11T00:28:28.058Z,9.80
2018-05-11T00:29:28.052Z,10.20
2018-05-11T00:30:28.053Z,11.20
2018-05-11T00:31:28.046Z,9.80
2018-05-11T00:32:28.042Z,10.80
2018-05-11T00:33:28.038Z,10.40
2018-05-11T00:34:28.028Z,11.20
2018-05-11T00:35:28.026Z,11.00
2018-05-11T00:36:28.023Z,10.80
2018-05-11T00:37:28.017Z,10.30
2018-05-11T00:38:28.008Z,9.90
2018-05-11T00:39:28.002Z,10.40
2018-05-11T00:40:27.997Z,11.50
2018-05-11T00:41:27.991Z,10.40
2018-05-11T00:42:27.995Z,10.90
2018-05-11T00:43:27.986Z,10.80
2018-05-11T00:44:27.981Z,10.30
2018-05-11T00:45:27.976Z,10.40
2018-05-11T00:46:27.966Z,10.30
2018-05-11T00:47:27.961Z,11.30
2018-05-11T00:48:27.956Z,10.50
2018-05-11T00:49:27.952Z,9.20
2018-05-11T00:50:27.951Z,9.20
2018-05-11T00:51:27.947Z,10.00
2018-05-11T00:52:27.938Z,9.50
2018-05-11T00:53:27.930Z,10.10
2018-05-11T00:54:27.930Z,9.90
2018-05-11T00:55:27.925Z,10.00
2018-05-11T00:56:27.919Z,10.20
2018-05-11T00:57:27.913Z,10.90
2018-05-11T00:58:27.905Z,10.00
2018-05-11T00:59:27.902Z,9.90
2018-05-11T01:00:27.894Z,9.70
2018-05-11T01:01:27.888Z,10.10
2018-05-11T01:02:27.887Z,10.50
2018-05-11T01:03:27.883Z,10.80
2018-05-11T01:04:27.879Z,11.90
2018-05-11T01:05:27.872Z,10.80
2018-05-11T01:06:27.862Z,10.90
2018-05-11T01:07:27.857Z,11.10
2018-05-11T01:08:27.859Z,10.80
2018-05-11T01:09:27.850Z,11.40
2018-05-11T01:10:27.840Z,11.10
2018-05-11T01:11:27.836Z,10.70
2018-05-11T01:12:27.831Z,10.50
2018-05-11T01:13:27.824Z,10.40
2018-05-11T01:14:27.824Z,10.80
2018-05-11T01:15:27.824Z,11.20
2018-05-11T01:16:27.815Z,11.20
2018-05-11T01:17:27.808Z,12.00
2018-05-11T01:18:27.800Z,11.10
2018-05-11T01:19:27.794Z,12.20
2018-05-11T01:20:27.789Z,11.40
2018-05-11T01:21:27.782Z,11.40
2018-05-11T01:22:27.781Z,11.10
2018-05-11T01:23:27.782Z,12.20
2018-05-11T01:24:27.767Z,11.20
2018-05-11T01:25:27.760Z,12.10
2018-05-11T01:26:27.760Z,11.90
2018-05-11T01:27:27.755Z,11.20
2018-05-11T01:28:27.751Z,11.00
2018-05-11T01:29:27.745Z,10.70
2018-05-11T01:30:27.734Z,10.50
2018-05-11T01:31:27.729Z,11.10
2018-05-11T01:32:27.724Z,12.00
2018-05-11T01:33:27.717Z,10.90
2018-05-11T01:34:27.718Z,10.50
2018-05-11T01:35:27.712Z,12.20
2018-05-11T01:36:27.706Z,12.20
2018-05-11T01:37:27.702Z,10.80
2018-05-11T01:38:27.691Z,11.00
2018-05-11T01:39:27.685Z,11.20
2018-05-11T01:40:27.685Z,11.60
2018-05-11T01:41:27.679Z,11.20
2018-05-11T01:42:27.669Z,11.10
2018-05-11T01:43:27.664Z,11.30
2018-05-11T01:44:27.660Z,11.20
2018-05-11T01:45:27.654Z,11.40
2018-05-11T01:46:27.651Z,11.70
2018-05-11T01:47:27.649Z,11.60
2018-05-11T01:48:27.642Z,11.70
2018-05-11T01:49:27.636Z,11.10
2018-05-11T01:50:27.625Z,12.80
2018-05-11T01:51:27.620Z,11.80
2018-05-11T01:52:27.614Z,10.80
2018-05-11T01:53:27.607Z,11.30
2018-05-11T01:54:27.607Z,11.70
2018-05-11T01:55:27.601Z,12.30
2018-05-11T01:56:27.592Z,11.70
2018-05-11T01:57:27.585Z,12.40
2018-05-11T01:58:27.635Z,11.80
2018-05-11T01:59:27.579Z,11.60
2018-05-11T02:00:27.577Z,11.80
2018-05-11T02:01:27.569Z,11.80
2018-05-11T02:02:27.560Z,11.80
2018-05-11T02:03:27.552Z,11.00
2018-05-11T02:04:27.550Z,11.60
2018-05-11T02:05:27.541Z,11.20
2018-05-11T02:06:27.541Z,12.10
2018-05-11T02:07:27.535Z,11.50
2018-05-11T02:08:27.529Z,11.30
2018-05-11T02:09:27.522Z,11.00
2018-05-11T02:10:27.512Z,11.50
2018-05-11T02:11:27.507Z,10.60
2018-05-11T02:12:27.506Z,11.20
2018-05-11T02:13:27.499Z,11.00
2018-05-11T02:14:27.489Z,11.70
2018-05-11T02:15:27.485Z,10.70
2018-05-11T02:16:27.479Z,11.10
2018-05-11T02:17:27.472Z,10.60
2018-05-11T02:18:27.504Z,10.60
2018-05-11T02:19:27.470Z,10.90
2018-05-11T02:20:27.459Z,10.50
2018-05-11T02:21:27.454Z,11.70
2018-05-11T02:22:27.443Z,10.30
2018-05-11T02:23:27.438Z,10.20
2018-05-11T02:24:27.435Z,10.90
2018-05-11T02:25:27.425Z,9.90
2018-05-11T02:26:27.425Z,10.80
2018-05-11T02:27:27.419Z,10.70
2018-05-11T02:28:27.409Z,10.60
2018-05-11T02:29:27.402Z,9.90
2018-05-11T02:30:27.406Z,10.10
2018-05-11T02:31:27.400Z,10.30
2018-05-11T02:32:27.391Z,10.60
2018-05-11T02:33:27.382Z,10.70
2018-05-11T02:34:27.373Z,10.30
2018-05-11T02:35:27.368Z,10.10
2018-05-11T02:36:27.363Z,9.70
2018-05-11T02:37:27.355Z,10.80
2018-05-11T02:38:27.358Z,10.90
2018-05-11T02:39:27.349Z,10.90
2018-05-11T02:40:27.344Z,10.50
2018-05-11T02:41:27.338Z,10.90
2018-05-11T02:42:27.327Z,10.20
2018-05-11T02:43:27.321Z,10.10
2018-05-11T02:44:27.320Z,10.40
2018-05-11T02:45:27.314Z,10.50
2018-05-11T02:46:27.303Z,10.20
2018-05-11T02:47:27.302Z,10.30
2018-05-11T02:48:27.291Z,9.90
2018-05-11T02:49:27.285Z,11.30
2018-05-11T02:50:27.283Z,10.30
2018-05-11T02:51:27.277Z,9.90
2018-05-11T02:52:27.271Z,10.90
2018-05-11T02:53:27.265Z,10.50
2018-05-11T02:54:27.254Z,9.90
2018-05-11T02:55:27.248Z,9.90
2018-05-11T02:56:27.243Z,10.70
2018-05-11T02:57:27.239Z,10.10
2018-05-11T02:58:27.238Z,9.70
2018-05-11T02:59:27.229Z,10.40
2018-05-11T03:00:27.219Z,10.20
2018-05-11T03:01:27.213Z,9.80
2018-05-11T03:02:27.212Z,10.20
2018-05-11T03:03:27.206Z,9.40
2018-05-11T03:04:27.200Z,11.00
2018-05-11T03:05:27.192Z,10.50
2018-05-11T03:06:27.183Z,9.90
2018-05-11T03:07:27.175Z,9.30
2018-05-11T03:08:27.171Z,9.80
2018-05-11T03:09:27.164Z,10.50
2018-05-11T03:10:27.253Z,11.20
2018-05-11T03:11:27.156Z,10.80
2018-05-11T03:12:27.150Z,10.40
2018-05-11T03:13:27.215Z,10.10
2018-05-11T03:14:27.133Z,10.20
2018-05-11T03:15:27.128Z,10.00
2018-05-11T03:16:27.127Z,10.10
2018-05-11T03:17:27.120Z,10.60
2018-05-11T03:18:27.308Z,10.60
2018-05-11T03:19:27.103Z,10.30
2018-05-11T03:20:27.097Z,10.10
2018-05-11T03:21:27.090Z,10.30
2018-05-11T03:22:27.090Z,10.50
2018-05-11T03:23:27.083Z,9.70
2018-05-11T03:24:27.076Z,10.30
2018-05-11T03:25:27.069Z,9.80
2018-05-11T03:26:27.059Z,10.00
2018-05-11T03:27:27.053Z,9.00
2018-05-11T03:28:27.048Z,9.20
2018-05-11T03:29:27.040Z,9.60
2018-05-11T03:30:27.041Z,9.60
2018-05-11T03:31:27.036Z,10.00
2018-05-11T03:32:27.023Z,9.00
2018-05-11T03:33:27.016Z,9.50
2018-05-11T03:34:27.014Z,9.30
2018-05-11T03:35:27.008Z,9.40
2018-05-11T03:36:27.003Z,9.70
2018-05-11T03:37:26.998Z,9.80
2018-05-11T03:38:26.984Z,9.60
2018-05-11T03:39:26.980Z,9.50
2018-05-11T03:40:26.973Z,9.60
2018-05-11T03:41:26.965Z,10.20
2018-05-11T03:42:26.965Z,9.60
2018-05-11T03:43:26.957Z,9.90
2018-05-11T03:44:26.952Z,9.40
2018-05-11T03:45:26.945Z,9.20
2018-05-11T03:46:26.935Z,9.50
2018-05-11T03:47:26.927Z,8.80
2018-05-11T03:48:26.928Z,9.30
2018-05-11T03:49:26.919Z,9.30
2018-05-11T03:50:26.910Z,9.10
2018-05-11T03:51:26.903Z,9.20
2018-05-11T03:52:26.896Z,9.50
2018-05-11T03:53:26.888Z,9.30
2018-05-11T03:54:26.886Z,8.80
2018-05-11T03:55:26.880Z,9.00
2018-05-11T03:56:26.875Z,9.10
2018-05-11T03:57:26.868Z,9.70
2018-05-11T03:58:26.856Z,8.80
2018-05-11T03:59:26.853Z,8.60
2018-05-11T04:00:26.844Z,8.80
2018-05-11T04:01:26.837Z,8.70
2018-05-11T04:02:26.836Z,9.60
2018-05-11T04:03:26.831Z,8.70
2018-05-11T04:04:26.823Z,9.10
2018-05-11T04:05:26.813Z,9.10
2018-05-11T04:06:26.811Z,9.50
2018-05-11T04:07:26.806Z,9.00
2018-05-11T04:08:26.797Z,9.40
2018-05-11T04:09:26.790Z,10.20
2018-05-11T04:10:26.779Z,8.70
2018-05-11T04:11:26.774Z,8.70
2018-05-11T04:12:26.769Z,9.10
2018-05-11T04:13:26.763Z,10.00
2018-05-11T04:14:26.758Z,9.60
2018-05-11T04:15:26.752Z,9.20
2018-05-11T04:16:26.748Z,10.30
2018-05-11T04:17:26.740Z,10.10
2018-05-11T04:18:26.730Z,10.20
2018-05-11T04:19:26.723Z,9.80
2018-05-11T04:20:26.722Z,10.40
2018-05-11T04:21:26.714Z,10.70
2018-05-11T04:22:26.704Z,10.40
2018-05-11T04:23:26.698Z,10.30
2018-05-11T04:24:26.692Z,11.20
2018-05-11T04:25:26.684Z,11.70
2018-05-11T04:26:26.686Z,11.20
2018-05-11T04:27:26.683Z,10.70
2018-05-11T04:28:26.672Z,11.30
2018-05-11T04:29:26.664Z,10.20
2018-05-11T04:30:26.655Z,10.50
2018-05-11T04:31:26.648Z,10.40
2018-05-11T04:32:26.642Z,10.70
2018-05-11T04:33:26.635Z,10.30
2018-05-11T04:34:26.635Z,11.00
2018-05-11T04:35:26.628Z,11.10
2018-05-11T04:36:26.623Z,11.40
2018-05-11T04:37:26.610Z,10.00
2018-05-11T04:38:26.609Z,12.50
2018-05-11T04:39:26.603Z,12.00
2018-05-11T04:40:26.598Z,11.30
2018-05-11T04:41:26.594Z,10.30
2018-05-11T04:42:26.585Z,10.30
2018-05-11T04:43:26.575Z,10.50
2018-05-11T04:44:26.569Z,10.90
2018-05-11T04:45:26.562Z,10.70
2018-05-11T04:46:26.563Z,10.90
2018-05-11T04:47:26.557Z,11.20
2018-05-11T04:48:26.551Z,12.70
2018-05-11T04:49:26.545Z,11.80
2018-05-11T04:50:26.541Z,10.50
2018-05-11T04:51:26.531Z,10.70
2018-05-11T04:52:26.529Z,10.90
2018-05-11T04:53:26.526Z,12.20
2018-05-11T04:54:26.515Z,10.90
2018-05-11T04:55:26.510Z,11.30
2018-05-11T04:56:26.508Z,11.20
2018-05-11T04:57:26.501Z,10.80
2018-05-11T04:58:26.516Z,10.80
2018-05-11T04:59:26.499Z,12.00
2018-05-11T05:00:26.495Z,10.90
2018-05-11T05:01:26.490Z,11.30
2018-05-11T05:02:26.482Z,11.00
2018-05-11T05:03:26.477Z,12.00
2018-05-11T05:04:26.474Z,11.70
2018-05-11T05:05:26.470Z,11.60
2018-05-11T05:06:26.471Z,13.20
2018-05-11T05:07:26.468Z,12.70
2018-05-11T05:08:26.461Z,12.00
2018-05-11T05:09:26.458Z,11.90
2018-05-11T05:10:26.460Z,12.80
2018-05-11T05:11:26.458Z,13.00
2018-05-11T05:12:26.504Z,13.00
2018-05-11T05:13:26.456Z,13.40
2018-05-11T05:14:26.445Z,12.80
2018-05-11T05:15:26.446Z,14.10
2018-05-11T05:16:26.441Z,14.80
2018-05-11T05:17:26.437Z,14.80
2018-05-11T05:18:26.441Z,14.10
2018-05-11T05:19:26.441Z,13.70
2018-05-11T05:20:26.436Z,14.40
2018-05-11T05:21:26.434Z,14.50
2018-05-11T05:22:26.428Z,15.20
2018-05-11T05:23:26.426Z,14.20
2018-05-11T05:24:26.429Z,14.50
2018-05-11T05:25:26.426Z,15.30
2018-05-11T05:26:26.420Z,13.70
2018-05-11T05:27:26.420Z,12.60
2018-05-11T05:28:26.417Z,12.30
2018-05-11T05:29:26.474Z,13.20
2018-05-11T05:30:26.420Z,12.50
2018-05-11T05:31:26.420Z,13.80
2018-05-11T05:32:26.418Z,13.30
2018-05-11T05:33:26.418Z,13.00
2018-05-11T05:34:26.412Z,14.50
2018-05-11T05:35:26.413Z,13.80
2018-05-11T05:36:26.412Z,14.50
2018-05-11T05:37:26.411Z,15.80
2018-05-11T05:38:26.416Z,16.20
2018-05-11T05:39:26.420Z,15.90
2018-05-11T05:40:26.413Z,17.20
2018-05-11T05:41:26.411Z,18.40
2018-05-11T05:42:26.417Z,18.00
2018-05-11T05:43:26.418Z,17.90
2018-05-11T05:44:26.419Z,17.10
2018-05-11T05:45:26.417Z,17.30
2018-05-11T05:46:26.423Z,16.70
2018-05-11T05:47:26.415Z,17.40
2018-05-11T05:48:26.416Z,16.00
2018-05-11T05:49:26.420Z,16.80
2018-05-11T05:50:26.422Z,16.60
2018-05-11T05:51:26.423Z,16.60
2018-05-11T05:52:26.424Z,18.00
2018-05-11T05:53:26.427Z,17.40
2018-05-11T05:54:26.425Z,17.80
2018-05-11T05:55:26.425Z,17.20
2018-05-11T05:56:26.436Z,18.10
2018-05-11T05:57:26.431Z,16.50
2018-05-11T05:58:26.494Z,17.60
2018-05-11T05:59:26.431Z,17.80
2018-05-11T06:00:26.439Z,17.20
2018-05-11T06:01:26.434Z,17.00
2018-05-11T06:02:26.513Z,17.00
2018-05-11T06:03:26.444Z,16.70
2018-05-11T06:04:26.447Z,16.80
2018-05-11T06:05:26.449Z,16.90
2018-05-11T06:06:26.448Z,16.40
2018-05-11T06:07:26.451Z,17.40
2018-05-11T06:08:26.455Z,18.50
2018-05-11T06:09:26.456Z,18.20
2018-05-11T06:10:26.463Z,18.10
2018-05-11T06:11:26.468Z,19.30
2018-05-11T06:12:26.465Z,19.50
2018-05-11T06:13:26.466Z,18.90
2018-05-11T06:14:26.475Z,18.70
2018-05-11T06:15:26.477Z,19.00
2018-05-11T06:16:26.479Z,19.50
2018-05-11T06:17:26.480Z,19.90
2018-05-11T06:18:26.479Z,19.30
2018-05-11T06:19:26.481Z,20.10
2018-05-11T06:20:26.483Z,20.40
2018-05-11T06:21:26.485Z,19.70
2018-05-11T06:22:26.491Z,19.70
2018-05-11T06:23:26.499Z,19.90
2018-05-11T06:24:26.504Z,18.40
2018-05-11T06:25:26.498Z,20.50
2018-05-11T06:26:26.495Z,19.70
2018-05-11T06:27:26.497Z,19.00
2018-05-11T06:28:26.504Z,18.80
2018-05-11T06:29:26.507Z,20.30
2018-05-11T06:30:26.503Z,19.20
2018-05-11T06:31:26.506Z,19.30
2018-05-11T06:32:26.511Z,19.10
2018-05-11T06:33:26.508Z,18.00
2018-05-11T06:34:26.551Z,17.70
2018-05-11T06:35:26.518Z,17.70
2018-05-11T06:36:26.526Z,17.00
2018-05-11T06:37:26.523Z,16.40
2018-05-11T06:38:26.525Z,15.10
2018-05-11T06:39:26.526Z,16.00
2018-05-11T06:40:26.554Z,14.80
2018-05-11T06:41:26.533Z,15.50
2018-05-11T06:42:26.542Z,14.40
2018-05-11T06:43:26.545Z,14.50
2018-05-11T06:44:26.550Z,13.30
2018-05-11T06:45:26.548Z,13.60
2018-05-11T06:46:26.558Z,12.50
2018-05-11T06:47:26.562Z,12.70
2018-05-11T06:48:26.568Z,12.90
2018-05-11T06:49:26.572Z,13.60
2018-05-11T06:50:26.572Z,14.30
2018-05-11T06:51:26.576Z,12.30
2018-05-11T06:52:26.581Z,13.60
2018-05-11T06:53:26.585Z,35.80
2018-05-11T06:54:26.594Z,41.50
2018-05-11T06:55:26.602Z,67.60
2018-05-11T06:56:26.605Z,194.60
2018-05-11T06:57:26.610Z,558.00
2018-05-11T06:58:26.612Z,657.00
2018-05-11T06:59:26.618Z,782.50
2018-05-11T07:00:26.628Z,673.20
2018-05-11T07:01:26.689Z,573.90
2018-05-11T07:02:26.634Z,464.20
2018-05-11T07:03:26.641Z,445.00
2018-05-11T07:04:26.647Z,576.20
2018-05-11T07:05:26.658Z,606.70
2018-05-11T07:06:26.664Z,390.60
2018-05-11T07:07:26.670Z,772.70
2018-05-11T07:08:26.682Z,956.30
2018-05-11T07:09:26.681Z,653.20
2018-05-11T07:10:26.682Z,278.90
2018-05-11T07:11:26.689Z,173.70
2018-05-11T07:12:26.695Z,220.10
2018-05-11T07:13:26.701Z,414.60
2018-05-11T07:14:26.713Z,436.30
2018-05-11T07:15:26.719Z,131.40
2018-05-11T07:16:26.723Z,35.60
2018-05-11T07:17:26.728Z,17.20
2018-05-11T07:18:26.740Z,10.80
2018-05-11T07:19:26.766Z,9.80
2018-05-11T07:20:26.756Z,10.40
2018-05-11T07:21:26.766Z,10.00
2018-05-11T07:22:26.765Z,9.40
2018-05-11T07:23:26.777Z,9.70
2018-05-11T07:24:26.782Z,10.60
2018-05-11T07:25:26.789Z,10.50
2018-05-11T07:26:26.802Z,10.00
2018-05-11T07:27:26.811Z,10.20
2018-05-11T07:28:26.819Z,10.30
2018-05-11T07:29:26.827Z,10.50
2018-05-11T07:30:26.831Z,10.00
2018-05-11T07:31:26.840Z,10.20
2018-05-11T07:32:26.853Z,9.20
2018-05-11T07:33:26.863Z,10.60
2018-05-11T07:34:26.866Z,11.60
2018-05-11T07:35:26.875Z,13.20
2018-05-11T07:36:26.886Z,177.80
2018-05-11T07:37:26.896Z,140.00
2018-05-11T07:38:26.907Z,51.40
2018-05-11T07:39:26.913Z,66.40
2018-05-11T07:40:26.920Z,563.00
2018-05-11T07:41:26.925Z,720.00
2018-05-11T07:42:26.939Z,672.60
2018-05-11T07:43:27.109Z,80.30
2018-05-11T07:44:26.957Z,32.80
2018-05-11T07:45:26.960Z,17.50
2018-05-11T07:46:26.964Z,17.00
2018-05-11T07:47:26.975Z,17.40
2018-05-11T07:48:26.981Z,17.40
2018-05-11T07:49:26.989Z,18.40
2018-05-11T07:50:26.990Z,17.60
2018-05-11T07:51:26.998Z,18.60
2018-05-11T07:52:27.002Z,18.20
2018-05-11T07:53:27.010Z,17.50
2018-05-11T07:54:27.019Z,18.00
2018-05-11T07:55:27.025Z,17.70
2018-05-11T07:56:27.029Z,18.40
2018-05-11T07:57:27.035Z,18.10
2018-05-11T07:58:27.036Z,19.10
2018-05-11T07:59:27.042Z,18.40
2018-05-11T08:00:27.046Z,19.50
2018-05-11T08:01:27.050Z,19.70
2018-05-11T08:02:27.060Z,18.80
2018-05-11T08:03:27.067Z,19.00
2018-05-11T08:04:27.071Z,19.20
2018-05-11T08:05:27.072Z,19.60
2018-05-11T08:06:27.081Z,19.10
2018-05-11T08:07:27.086Z,19.00
2018-05-11T08:08:27.095Z,20.30
2018-05-11T08:09:27.098Z,20.10
2018-05-11T08:10:27.098Z,18.90
2018-05-11T08:11:27.103Z,22.80
2018-05-11T08:12:27.110Z,689.60
2018-05-11T08:13:27.113Z,834.20
2018-05-11T08:14:27.247Z,188.00
2018-05-11T08:15:27.130Z,310.90
2018-05-11T08:16:27.138Z,670.10
2018-05-11T08:17:27.142Z,811.00
2018-05-11T08:18:27.143Z,865.50
2018-05-11T08:19:27.150Z,141.60
2018-05-11T08:20:27.161Z,26.30
2018-05-11T08:21:27.281Z,13.10
2018-05-11T08:22:27.172Z,12.90
2018-05-11T08:23:27.181Z,13.20
2018-05-11T08:24:27.188Z,17.10
2018-05-11T08:25:27.195Z,87.20
2018-05-11T08:26:27.207Z,520.80
2018-05-11T08:27:27.215Z,720.10
2018-05-11T08:28:27.223Z,848.30
2018-05-11T08:29:27.232Z,807.60
2018-05-11T08:30:27.232Z,755.30
2018-05-11T08:31:27.240Z,603.40
2018-05-11T08:32:27.252Z,616.00
2018-05-11T08:33:27.255Z,730.00
2018-05-11T08:34:27.270Z,823.50
2018-05-11T08:35:27.275Z,844.80
2018-05-11T08:36:27.280Z,772.00
2018-05-11T08:37:27.286Z,747.40
2018-05-11T08:38:27.298Z,391.70
2018-05-11T08:39:27.306Z,59.70
2018-05-11T08:40:27.315Z,51.00
2018-05-11T08:41:27.321Z,43.30
2018-05-11T08:42:27.325Z,37.90
2018-05-11T08:43:27.333Z,216.50
2018-05-11T08:44:27.338Z,816.30
2018-05-11T08:45:27.343Z,153.80
2018-05-11T08:46:27.398Z,36.00
2018-05-11T08:47:27.364Z,16.30
2018-05-11T08:48:27.374Z,15.10
2018-05-11T08:49:27.381Z,13.30
2018-05-11T08:50:27.383Z,13.10
2018-05-11T08:51:27.393Z,13.60
2018-05-11T08:52:27.421Z,12.00
2018-05-11T08:53:27.416Z,12.60
2018-05-11T08:54:27.420Z,12.50
2018-05-11T08:55:27.431Z,13.30
2018-05-11T08:56:27.441Z,14.10
2018-05-11T08:57:27.450Z,13.50
2018-05-11T08:58:27.466Z,14.60
2018-05-11T08:59:27.476Z,21.90
2018-05-11T09:00:27.487Z,18.30
2018-05-11T09:01:27.495Z,13.30
2018-05-11T09:02:27.503Z,12.50
2018-05-11T09:03:27.514Z,12.00
2018-05-11T09:04:27.525Z,11.60
2018-05-11T09:05:27.536Z,10.20
2018-05-11T09:06:27.554Z,9.90
2018-05-11T09:07:27.566Z,9.40
2018-05-11T09:08:27.573Z,9.70
2018-05-11T09:09:27.584Z,9.40
2018-05-11T09:10:27.604Z,7.90
2018-05-11T09:11:27.616Z,9.00
2018-05-11T09:12:27.630Z,8.10
2018-05-11T09:13:27.642Z,7.70
2018-05-11T09:14:27.652Z,7.70
2018-05-11T09:15:27.665Z,7.40
2018-05-11T09:16:27.679Z,8.50
2018-05-11T09:17:27.692Z,8.10
2018-05-11T09:18:27.711Z,9.10
2018-05-11T09:19:27.724Z,8.90
2018-05-11T09:20:27.739Z,10.90
2018-05-11T09:21:27.754Z,11.60
2018-05-11T09:22:27.760Z,10.00
2018-05-11T09:23:27.772Z,9.60
2018-05-11T09:24:27.791Z,11.00
2018-05-11T09:25:27.802Z,10.30
2018-05-11T09:26:27.810Z,11.70
2018-05-11T09:27:27.823Z,13.60
2018-05-11T09:28:27.838Z,14.60
2018-05-11T09:29:27.847Z,25.30
2018-05-11T09:30:27.863Z,16.00
2018-05-11T09:31:27.876Z,12.30
2018-05-11T09:32:27.887Z,13.00
2018-05-11T09:33:27.899Z,11.80
2018-05-11T09:34:27.908Z,11.00
2018-05-11T09:35:27.920Z,11.90
2018-05-11T09:36:27.933Z,10.60
2018-05-11T09:37:27.952Z,11.10
2018-05-11T09:38:27.962Z,9.40
2018-05-11T09:39:28.025Z,9.70
2018-05-11T09:40:27.985Z,8.90
2018-05-11T09:41:27.997Z,9.00
2018-05-11T09:42:28.017Z,10.10
2018-05-11T09:43:28.032Z,11.10
2018-05-11T09:44:28.044Z,10.50
2018-05-11T09:45:28.056Z,12.10
2018-05-11T09:46:28.064Z,11.40
2018-05-11T09:47:28.077Z,13.30
2018-05-11T09:48:28.090Z,13.00
2018-05-11T09:49:28.143Z,14.70
2018-05-11T09:50:28.120Z,13.90
2018-05-11T09:51:28.132Z,12.20
2018-05-11T09:52:28.146Z,12.20
2018-05-11T09:53:28.241Z,14.40
2018-05-11T09:54:28.161Z,50.00
2018-05-11T09:55:28.173Z,336.40
2018-05-11T09:56:28.188Z,609.50
2018-05-11T09:57:28.199Z,680.60
2018-05-11T09:58:28.206Z,44.30
2018-05-11T09:59:28.215Z,17.60
2018-05-11T10:00:28.230Z,13.10
2018-05-11T10:01:28.244Z,12.30
2018-05-11T10:02:28.252Z,11.90
2018-05-11T10:03:28.265Z,11.30
2018-05-11T10:04:28.356Z,11.20
2018-05-11T10:05:28.287Z,9.30
2018-05-11T10:06:28.294Z,9.40
2018-05-11T10:07:28.306Z,8.60
2018-05-11T10:08:28.322Z,9.40
2018-05-11T10:09:28.332Z,10.20
2018-05-11T10:10:28.349Z,9.40
2018-05-11T10:11:28.361Z,9.50
2018-05-11T10:12:28.369Z,9.20
2018-05-11T10:13:28.383Z,10.30
2018-05-11T10:14:28.401Z,9.10
2018-05-11T10:15:28.415Z,9.30
2018-05-11T10:16:28.432Z,8.70
2018-05-11T10:17:28.444Z,9.40
2018-05-11T10:18:28.453Z,9.30
2018-05-11T10:19:28.467Z,8.30
2018-05-11T10:20:28.483Z,9.20
2018-05-11T10:21:28.497Z,10.00
2018-05-11T10:22:28.516Z,11.00
2018-05-11T10:23:28.535Z,10.50
2018-05-11T10:24:28.547Z,9.30
2018-05-11T10:25:28.560Z,8.50
2018-05-11T10:26:28.571Z,9.80
2018-05-11T10:27:28.591Z,8.90
2018-05-11T10:28:28.607Z,8.60
2018-05-11T10:29:28.626Z,8.30
2018-05-11T10:30:28.636Z,7.80
2018-05-11T10:31:28.648Z,8.40
2018-05-11T10:32:28.665Z,10.20
2018-05-11T10:33:28.684Z,11.50
2018-05-11T10:34:28.780Z,12.80
2018-05-11T10:35:28.716Z,12.60
2018-05-11T10:36:28.730Z,18.20
2018-05-11T10:37:28.742Z,32.00
2018-05-11T10:38:28.752Z,94.80
2018-05-11T10:39:28.765Z,239.00
2018-05-11T10:40:28.777Z,377.60
2018-05-11T10:41:28.790Z,136.70
2018-05-11T10:42:28.824Z,51.60
2018-05-11T10:43:28.821Z,27.60
2018-05-11T10:44:28.827Z,16.50
2018-05-11T10:45:28.836Z,15.00
2018-05-11T10:46:28.854Z,18.50
2018-05-11T10:47:28.865Z,20.30
2018-05-11T10:48:28.930Z,17.20
2018-05-11T10:49:28.888Z,16.80
2018-05-11T10:50:28.896Z,14.10
2018-05-11T10:51:28.909Z,13.30
2018-05-11T10:52:28.921Z,12.10
2018-05-11T10:53:28.933Z,12.20
2018-05-11T10:54:28.950Z,11.30
2018-05-11T10:55:28.963Z,11.80
2018-05-11T10:56:28.977Z,12.70
2018-05-11T10:57:28.988Z,13.50
2018-05-11T10:58:29.000Z,14.00
2018-05-11T10:59:29.011Z,13.90
2018-05-11T11:00:29.029Z,14.20
2018-05-11T11:01:29.043Z,29.00
2018-05-11T11:02:29.123Z,65.60
2018-05-11T11:03:29.063Z,50.90
2018-05-11T11:04:29.076Z,83.30
2018-05-11T11:05:29.088Z,86.60
2018-05-11T11:06:29.105Z,38.00
2018-05-11T11:07:29.120Z,29.30
2018-05-11T11:08:29.130Z,27.70
2018-05-11T11:09:29.141Z,19.30
2018-05-11T11:10:29.151Z,16.90
2018-05-11T11:11:29.163Z,14.00
2018-05-11T11:12:29.175Z,13.80
2018-05-11T11:13:29.194Z,18.10
2018-05-11T11:14:29.203Z,23.80
2018-05-11T11:15:29.217Z,32.90
2018-05-11T11:16:29.225Z,46.90
2018-05-11T11:17:29.236Z,64.20
2018-05-11T11:18:29.252Z,122.70
2018-05-11T11:19:29.263Z,142.20
2018-05-11T11:20:29.274Z,122.50
2018-05-11T11:21:29.285Z,245.90
2018-05-11T11:22:29.291Z,261.40
2018-05-11T11:23:29.311Z,359.00
2018-05-11T11:24:29.312Z,484.50
2018-05-11T11:25:29.324Z,563.20
2018-05-11T11:26:29.336Z,727.70
2018-05-11T11:27:29.346Z,802.70
2018-05-11T11:28:29.358Z,822.20
2018-05-11T11:29:29.367Z,844.70
2018-05-11T11:30:29.369Z,843.10
2018-05-11T11:31:29.381Z,777.00
2018-05-11T11:32:29.393Z,753.10
2018-05-11T11:33:29.400Z,813.50
2018-05-11T11:34:29.469Z,877.80
2018-05-11T11:35:29.422Z,877.10
2018-05-11T11:36:29.420Z,856.90
2018-05-11T11:37:29.427Z,920.40
2018-05-11T11:38:29.440Z,745.50
2018-05-11T11:39:29.446Z,700.10
2018-05-11T11:40:29.473Z,586.70
2018-05-11T11:41:29.460Z,138.10
2018-05-11T11:42:29.465Z,443.40
2018-05-11T11:43:29.470Z,174.90
2018-05-11T11:44:29.487Z,199.70
2018-05-11T11:45:29.483Z,152.40
2018-05-11T11:46:29.494Z,115.00
2018-05-11T11:47:29.512Z,177.50
2018-05-11T11:48:29.502Z,393.40
2018-05-11T11:49:29.507Z,313.70
2018-05-11T11:50:29.519Z,166.50
2018-05-11T11:51:29.524Z,236.00
2018-05-11T11:52:29.531Z,357.30
2018-05-11T11:53:29.535Z,154.60
2018-05-11T11:54:29.538Z,290.70
2018-05-11T11:55:29.543Z,191.80
2018-05-11T11:56:29.646Z,129.40
2018-05-11T11:57:29.552Z,145.00
2018-05-11T11:58:29.563Z,88.10
2018-05-11T11:59:29.568Z,63.70
2018-05-11T12:00:29.574Z,40.40
2018-05-11T12:01:29.580Z,31.90
2018-05-11T12:02:29.579Z,22.90
2018-05-11T12:03:29.584Z,20.90
2018-05-11T12:04:29.594Z,25.20
2018-05-11T12:05:29.599Z,35.30
2018-05-11T12:06:29.597Z,23.50
2018-05-11T12:07:29.602Z,18.80
2018-05-11T12:08:29.607Z,18.70
2018-05-11T12:09:29.611Z,19.10
2018-05-11T12:10:29.620Z,17.10
2018-05-11T12:11:29.626Z,17.90
2018-05-11T12:12:29.630Z,17.50
2018-05-11T12:13:29.634Z,17.40
2018-05-11T12:14:29.634Z,18.60
2018-05-11T12:15:29.690Z,18.70
2018-05-11T12:16:29.645Z,18.80
2018-05-11T12:17:29.649Z,19.10
2018-05-11T12:18:29.707Z,18.50
2018-05-11T12:19:29.663Z,18.40
2018-05-11T12:20:29.663Z,18.50
2018-05-11T12:21:29.668Z,18.40
2018-05-11T12:22:29.677Z,18.50
2018-05-11T12:23:29.681Z,19.00
2018-05-11T12:24:29.684Z,18.20
2018-05-11T12:25:29.688Z,19.10
2018-05-11T12:26:29.688Z,18.90
2018-05-11T12:27:29.692Z,17.80
2018-05-11T12:28:29.696Z,17.60
2018-05-11T12:29:29.699Z,17.60
2018-05-11T12:30:29.708Z,18.00
2018-05-11T12:31:29.713Z,17.20
2018-05-11T12:32:29.717Z,16.80
2018-05-11T12:33:29.720Z,17.80
2018-05-11T12:34:29.718Z,18.50
2018-05-11T12:35:29.723Z,17.80
2018-05-11T12:36:29.732Z,17.30
2018-05-11T12:37:29.734Z,16.00
2018-05-11T12:38:29.733Z,16.60
2018-05-11T12:39:29.738Z,16.20
2018-05-11T12:40:29.743Z,16.00
2018-05-11T12:41:29.744Z,16.20
2018-05-11T12:42:29.752Z,18.00
2018-05-11T12:43:29.756Z,17.10
2018-05-11T12:44:29.759Z,16.20
2018-05-11T12:45:29.763Z,16.50
2018-05-11T12:46:29.766Z,15.50
2018-05-11T12:47:29.766Z,16.10
2018-05-11T12:48:29.769Z,15.50
2018-05-11T12:49:29.772Z,14.70
2018-05-11T12:50:29.780Z,16.30
2018-05-11T12:51:29.784Z,16.10
2018-05-11T12:52:29.783Z,16.70
2018-05-11T12:53:29.785Z,18.20